sensor_id;sensor_type;location;lat;lon;timestamp;temperature;humidity
17807;DHT22;9027;48.938;9.182;2022-11-15T00:38:23;9.70;99.90
17807;DHT22;9027;48.938;9.182;2022-11-15T00:40:15;9.60;99.90
17807;DHT22;9027;48.938;9.182;2022-11-15T00:42:05;9.60;99.90
17807;DHT22;9027;48.938;9.182;2022-11-15T00:43:56;9.60;99.90
17807;DHT22;9027;48.938;9.182;2022-11-15T00:45:46;9.50;99.90
17807;DHT22;9027;48.938;9.182;2022-11-15T00:47:37;9.50;99.90
17807;DHT22;9027;48.938;9.182;2022-11-15T00:49:27;9.50;99.90
17807;DHT22;9027;48.938;9.182;2022-11-15T00:51:18;9.50;99.90
17807;DHT22;9027;48.938;9.182;2022-11-15T00:53:08;9.50;99.90
17807;DHT22;9027;48.938;9.182;2022-11-15T00:55:00;9.50;99.90
17807;DHT22;9027;48.938;9.182;2022-11-15T00:56:50;9.50;99.90
17807;DHT22;9027;48.938;9.182;2022-11-15T00:58:41;9.30;99.90
17807;DHT22;9027;48.938;9.182;2022-11-15T01:00:31;9.20;99.90
17807;DHT22;9027;48.938;9.182;2022-11-15T01:02:22;9.20;99.90
17807;DHT22;9027;48.938;9.182;2022-11-15T01:04:13;9.20;99.90
17807;DHT22;9027;48.938;9.182;2022-11-15T01:06:04;9.30;99.90
17807;DHT22;9027;48.938;9.182;2022-11-15T01:07:56;9.30;99.90
17807;DHT22;9027;48.938;9.182;2022-11-15T01:09:46;9.30;99.90
17807;DHT22;9027;48.938;9.182;2022-11-15T01:11:38;9.30;99.90
17807;DHT22;9027;48.938;9.182;2022-11-15T01:13:30;9.30;99.90
17807;DHT22;9027;48.938;9.182;2022-11-15T01:15:20;9.20;99.90
17807;DHT22;9027;48.938;9.182;2022-11-15T01:17:11;9.10;99.90
17807;DHT22;9027;48.938;9.182;2022-11-15T01:19:01;9.10;99.90
17807;DHT22;9027;48.938;9.182;2022-11-15T01:20:52;8.90;99.90
17807;DHT22;9027;48.938;9.182;2022-11-15T01:22:42;8.90;99.90
17807;DHT22;9027;48.938;9.182;2022-11-15T01:24:33;9.00;99.90
17807;DHT22;9027;48.938;9.182;2022-11-15T01:26:24;9.00;99.90
17807;DHT22;9027;48.938;9.182;2022-11-15T01:28:16;9.00;99.90
17807;DHT22;9027;48.938;9.182;2022-11-15T01:30:07;9.00;99.90
17807;DHT22;9027;48.938;9.182;2022-11-15T01:31:58;9.00;99.90
17807;DHT22;9027;48.938;9.182;2022-11-15T01:33:49;8.90;99.90
17807;DHT22;9027;48.938;9.182;2022-11-15T01:35:39;8.80;99.90
17807;DHT22;9027;48.938;9.182;2022-11-15T01:37:30;8.70;99.90
17807;DHT22;9027;48.938;9.182;2022-11-15T01:39:20;8.70;99.90
17807;DHT22;9027;48.938;9.182;2022-11-15T01:41:16;8.70;99.90
17807;DHT22;9027;48.938;9.182;2022-11-15T01:43:22;8.60;99.90
17807;DHT22;9027;48.938;9.182;2022-11-15T01:45:14;8.60;99.90
17807;DHT22;9027;48.938;9.182;2022-11-15T01:47:08;8.50;99.90
17807;DHT22;9027;48.938;9.182;2022-11-15T01:49:02;8.50;99.90
17807;DHT22;9027;48.938;9.182;2022-11-15T01:50:53;8.50;99.90
17807;DHT22;9027;48.938;9.182;2022-11-15T01:52:44;8.50;99.90
17807;DHT22;9027;48.938;9.182;2022-11-15T01:54:34;8.50;99.90
17807;DHT22;9027;48.938;9.182;2022-11-15T01:56:28;8.40;99.90
17807;DHT22;9027;48.938;9.182;2022-11-15T01:58:21;8.40;99.90
17807;DHT22;9027;48.938;9.182;2022-11-15T02:00:13;8.50;99.90
17807;DHT22;9027;48.938;9.182;2022-11-15T02:02:04;8.50;99.90
17807;DHT22;9027;48.938;9.182;2022-11-15T02:03:58;8.50;99.90
17807;DHT22;9027;48.938;9.182;2022-11-15T02:05:50;8.50;99.90
17807;DHT22;9027;48.938;9.182;2022-11-15T02:07:41;8.40;99.90
17807;DHT22;9027;48.938;9.182;2022-11-15T02:09:32;8.30;99.90
17807;DHT22;9027;48.938;9.182;2022-11-15T02:11:22;8.30;99.90
17807;DHT22;9027;48.938;9.182;2022-11-15T02:13:13;8.30;99.90
17807;DHT22;9027;48.938;9.182;2022-11-15T02:15:07;8.30;99.90
17807;DHT22;9027;48.938;9.182;2022-11-15T02:17:01;8.30;99.90
17807;DHT22;9027;48.938;9.182;2022-11-15T02:18:57;8.30;99.90
17807;DHT22;9027;48.938;9.182;2022-11-15T02:21:09;8.30;99.90
17807;DHT22;9027;48.938;9.182;2022-11-15T02:23:28;8.30;99.90
17807;DHT22;9027;48.938;9.182;2022-11-15T02:25:39;8.30;99.90
17807;DHT22;9027;48.938;9.182;2022-11-15T02:28:16;8.30;99.90
17807;DHT22;9027;48.938;9.182;2022-11-15T02:30:31;8.20;99.90
17807;DHT22;9027;48.938;9.182;2022-11-15T02:32:28;8.30;99.90
17807;DHT22;9027;48.938;9.182;2022-11-15T02:34:27;8.30;99.90
17807;DHT22;9027;48.938;9.182;2022-11-15T02:36:24;8.20;99.90
17807;DHT22;9027;48.938;9.182;2022-11-15T02:38:24;8.20;99.90
17807;DHT22;9027;48.938;9.182;2022-11-15T02:40:23;8.10;99.90
17807;DHT22;9027;48.938;9.182;2022-11-15T02:42:21;8.20;99.90
17807;DHT22;9027;48.938;9.182;2022-11-15T02:44:35;8.30;99.90
17807;DHT22;9027;48.938;9.182;2022-11-15T02:46:34;8.30;99.90
17807;DHT22;9027;48.938;9.182;2022-11-15T02:48:43;8.40;99.90
17807;DHT22;9027;48.938;9.182;2022-11-15T02:50:35;8.40;99.90
17807;DHT22;9027;48.938;9.182;2022-11-15T02:52:25;8.40;99.90
17807;DHT22;9027;48.938;9.182;2022-11-15T02:54:21;8.40;99.90
17807;DHT22;9027;48.938;9.182;2022-11-15T02:56:12;8.30;99.90
17807;DHT22;9027;48.938;9.182;2022-11-15T02:58:26;8.20;99.90
17807;DHT22;9027;48.938;9.182;2022-11-15T03:00:22;8.30;99.90
17807;DHT22;9027;48.938;9.182;2022-11-15T03:02:20;8.40;99.90
17807;DHT22;9027;48.938;9.182;2022-11-15T03:04:21;8.50;99.90
17807;DHT22;9027;48.938;9.182;2022-11-15T03:06:22;8.50;99.90
17807;DHT22;9027;48.938;9.182;2022-11-15T03:08:20;8.60;99.90
17807;DHT22;9027;48.938;9.182;2022-11-15T03:10:18;8.60;99.90
17807;DHT22;9027;48.938;9.182;2022-11-15T03:12:14;8.60;99.90
17807;DHT22;9027;48.938;9.182;2022-11-15T03:14:14;8.50;99.90
17807;DHT22;9027;48.938;9.182;2022-11-15T03:16:11;8.50;99.90
17807;DHT22;9027;48.938;9.182;2022-11-15T03:18:06;8.60;99.90
17807;DHT22;9027;48.938;9.182;2022-11-15T03:20:02;8.60;99.90
17807;DHT22;9027;48.938;9.182;2022-11-15T03:21:54;8.60;99.90
17807;DHT22;9027;48.938;9.182;2022-11-15T03:23:47;8.60;99.90
17807;DHT22;9027;48.938;9.182;2022-11-15T03:25:41;8.70;99.90
17807;DHT22;9027;48.938;9.182;2022-11-15T03:27:36;8.60;99.90
17807;DHT22;9027;48.938;9.182;2022-11-15T03:29:32;8.70;99.90
17807;DHT22;9027;48.938;9.182;2022-11-15T03:31:28;8.60;99.90
17807;DHT22;9027;48.938;9.182;2022-11-15T03:33:40;8.60;99.90
17807;DHT22;9027;48.938;9.182;2022-11-15T03:35:35;8.60;99.90
17807;DHT22;9027;48.938;9.182;2022-11-15T03:37:32;8.60;99.90
17807;DHT22;9027;48.938;9.182;2022-11-15T03:39:25;8.60;99.90
17807;DHT22;9027;48.938;9.182;2022-11-15T03:41:20;8.50;99.90
17807;DHT22;9027;48.938;9.182;2022-11-15T03:43:15;8.60;99.90
17807;DHT22;9027;48.938;9.182;2022-11-15T03:45:14;8.60;99.90
17807;DHT22;9027;48.938;9.182;2022-11-15T03:47:09;8.60;99.90
17807;DHT22;9027;48.938;9.182;2022-11-15T03:49:06;8.50;99.90
17807;DHT22;9027;48.938;9.182;2022-11-15T03:50:57;8.60;99.90
17807;DHT22;9027;48.938;9.182;2022-11-15T03:52:48;8.50;99.90
17807;DHT22;9027;48.938;9.182;2022-11-15T03:54:49;8.50;99.90
17807;DHT22;9027;48.938;9.182;2022-11-15T03:56:39;8.50;99.90
17807;DHT22;9027;48.938;9.182;2022-11-15T03:58:29;8.50;99.90
17807;DHT22;9027;48.938;9.182;2022-11-15T04:00:20;8.40;99.90
17807;DHT22;9027;48.938;9.182;2022-11-15T04:02:11;8.40;99.90
17807;DHT22;9027;48.938;9.182;2022-11-15T04:04:03;8.30;99.90
17807;DHT22;9027;48.938;9.182;2022-11-15T04:05:53;8.30;99.90
17807;DHT22;9027;48.938;9.182;2022-11-15T04:07:44;8.30;99.90
17807;DHT22;9027;48.938;9.182;2022-11-15T04:09:34;8.30;99.90
17807;DHT22;9027;48.938;9.182;2022-11-15T04:11:45;8.40;99.90
17807;DHT22;9027;48.938;9.182;2022-11-15T04:13:36;8.40;99.90
17807;DHT22;9027;48.938;9.182;2022-11-15T04:15:26;8.50;99.90
17807;DHT22;9027;48.938;9.182;2022-11-15T04:17:17;8.50;99.90
17807;DHT22;9027;48.938;9.182;2022-11-15T04:19:09;8.50;99.90
17807;DHT22;9027;48.938;9.182;2022-11-15T04:21:17;8.60;99.90
17807;DHT22;9027;48.938;9.182;2022-11-15T04:23:25;8.50;99.90
17807;DHT22;9027;48.938;9.182;2022-11-15T04:25:33;8.50;99.90
17807;DHT22;9027;48.938;9.182;2022-11-15T04:27:24;8.50;99.90
17807;DHT22;9027;48.938;9.182;2022-11-15T04:29:14;8.50;99.90
17807;DHT22;9027;48.938;9.182;2022-11-15T04:31:22;8.50;99.90
17807;DHT22;9027;48.938;9.182;2022-11-15T04:33:13;8.50;99.90
17807;DHT22;9027;48.938;9.182;2022-11-15T04:35:05;8.50;99.90
17807;DHT22;9027;48.938;9.182;2022-11-15T04:36:56;8.50;99.90
17807;DHT22;9027;48.938;9.182;2022-11-15T04:39:05;8.60;99.90
17807;DHT22;9027;48.938;9.182;2022-11-15T04:40:55;8.60;99.90
17807;DHT22;9027;48.938;9.182;2022-11-15T04:42:46;8.60;99.90
17807;DHT22;9027;48.938;9.182;2022-11-15T04:44:36;8.60;99.90
17807;DHT22;9027;48.938;9.182;2022-11-15T04:46:27;8.60;99.90
17807;DHT22;9027;48.938;9.182;2022-11-15T04:48:17;8.60;99.90
17807;DHT22;9027;48.938;9.182;2022-11-15T04:50:09;8.50;99.90
17807;DHT22;9027;48.938;9.182;2022-11-15T04:52:02;8.60;99.90
17807;DHT22;9027;48.938;9.182;2022-11-15T04:53:52;8.60;99.90
17807;DHT22;9027;48.938;9.182;2022-11-15T04:55:44;8.70;99.90
17807;DHT22;9027;48.938;9.182;2022-11-15T04:57:34;8.70;99.90
17807;DHT22;9027;48.938;9.182;2022-11-15T04:59:25;8.70;99.90
17807;DHT22;9027;48.938;9.182;2022-11-15T05:01:15;8.80;99.90
17807;DHT22;9027;48.938;9.182;2022-11-15T05:03:06;8.80;99.90
17807;DHT22;9027;48.938;9.182;2022-11-15T05:05:15;8.80;99.90
17807;DHT22;9027;48.938;9.182;2022-11-15T05:07:06;8.90;99.90
17807;DHT22;9027;48.938;9.182;2022-11-15T05:08:57;8.90;99.90
17807;DHT22;9027;48.938;9.182;2022-11-15T05:10:47;8.90;99.90
17807;DHT22;9027;48.938;9.182;2022-11-15T05:12:38;8.90;99.90
17807;DHT22;9027;48.938;9.182;2022-11-15T05:14:29;8.90;99.90
17807;DHT22;9027;48.938;9.182;2022-11-15T05:16:19;8.90;99.90
17807;DHT22;9027;48.938;9.182;2022-11-15T05:18:10;8.90;99.90
17807;DHT22;9027;48.938;9.182;2022-11-15T05:20:01;8.80;99.90
17807;DHT22;9027;48.938;9.182;2022-11-15T05:21:53;8.80;99.90
17807;DHT22;9027;48.938;9.182;2022-11-15T05:23:44;8.70;99.90
17807;DHT22;9027;48.938;9.182;2022-11-15T05:25:36;8.60;99.90
17807;DHT22;9027;48.938;9.182;2022-11-15T05:27:26;8.60;99.90
17807;DHT22;9027;48.938;9.182;2022-11-15T05:29:17;8.60;99.90
17807;DHT22;9027;48.938;9.182;2022-11-15T05:31:09;8.60;99.90
17807;DHT22;9027;48.938;9.182;2022-11-15T05:33:00;8.60;99.90
17807;DHT22;9027;48.938;9.182;2022-11-15T05:34:51;8.60;99.90
17807;DHT22;9027;48.938;9.182;2022-11-15T05:36:43;8.50;99.90
17807;DHT22;9027;48.938;9.182;2022-11-15T05:38:36;8.60;99.90
17807;DHT22;9027;48.938;9.182;2022-11-15T05:40:26;8.50;99.90
17807;DHT22;9027;48.938;9.182;2022-11-15T05:42:17;8.50;99.90
17807;DHT22;9027;48.938;9.182;2022-11-15T05:44:10;8.50;99.90
17807;DHT22;9027;48.938;9.182;2022-11-15T05:46:01;8.50;99.90
17807;DHT22;9027;48.938;9.182;2022-11-15T05:47:54;8.50;99.90
17807;DHT22;9027;48.938;9.182;2022-11-15T05:49:47;8.60;99.90
17807;DHT22;9027;48.938;9.182;2022-11-15T05:51:39;8.60;99.90
17807;DHT22;9027;48.938;9.182;2022-11-15T05:53:31;8.60;99.90
17807;DHT22;9027;48.938;9.182;2022-11-15T05:55:23;8.60;99.90
17807;DHT22;9027;48.938;9.182;2022-11-15T05:57:14;8.70;99.90
17807;DHT22;9027;48.938;9.182;2022-11-15T05:59:05;8.60;99.90
17807;DHT22;9027;48.938;9.182;2022-11-15T06:00:56;8.70;99.90
17807;DHT22;9027;48.938;9.182;2022-11-15T06:02:46;8.70;99.90
17807;DHT22;9027;48.938;9.182;2022-11-15T06:04:37;8.60;99.90
17807;DHT22;9027;48.938;9.182;2022-11-15T06:06:27;8.70;99.90
17807;DHT22;9027;48.938;9.182;2022-11-15T06:08:18;8.70;99.90
17807;DHT22;9027;48.938;9.182;2022-11-15T06:10:09;8.70;99.90
17807;DHT22;9027;48.938;9.182;2022-11-15T06:12:01;8.70;99.90
17807;DHT22;9027;48.938;9.182;2022-11-15T06:13:51;8.70;99.90
17807;DHT22;9027;48.938;9.182;2022-11-15T06:15:41;8.60;99.90
17807;DHT22;9027;48.938;9.182;2022-11-15T06:17:32;8.60;99.90
17807;DHT22;9027;48.938;9.182;2022-11-15T06:19:22;8.70;99.90
17807;DHT22;9027;48.938;9.182;2022-11-15T06:21:13;8.70;99.90
17807;DHT22;9027;48.938;9.182;2022-11-15T06:23:04;8.70;99.90
17807;DHT22;9027;48.938;9.182;2022-11-15T06:24:54;8.60;99.90
17807;DHT22;9027;48.938;9.182;2022-11-15T06:26:45;8.60;99.90
17807;DHT22;9027;48.938;9.182;2022-11-15T06:28:36;8.70;99.90
17807;DHT22;9027;48.938;9.182;2022-11-15T06:30:27;8.70;99.90
17807;DHT22;9027;48.938;9.182;2022-11-15T06:32:18;8.70;99.90
17807;DHT22;9027;48.938;9.182;2022-11-15T06:34:08;8.60;99.90
17807;DHT22;9027;48.938;9.182;2022-11-15T06:36:01;8.60;99.90
17807;DHT22;9027;48.938;9.182;2022-11-15T06:37:51;8.60;99.90
17807;DHT22;9027;48.938;9.182;2022-11-15T06:39:42;8.60;99.90
17807;DHT22;9027;48.938;9.182;2022-11-15T06:41:34;8.60;99.90
17807;DHT22;9027;48.938;9.182;2022-11-15T06:43:24;8.70;99.90
17807;DHT22;9027;48.938;9.182;2022-11-15T06:45:17;8.70;99.90
17807;DHT22;9027;48.938;9.182;2022-11-15T06:47:08;8.70;99.90
17807;DHT22;9027;48.938;9.182;2022-11-15T06:48:59;8.80;99.90
17807;DHT22;9027;48.938;9.182;2022-11-15T06:50:50;8.80;99.90
17807;DHT22;9027;48.938;9.182;2022-11-15T06:52:42;8.80;99.90
17807;DHT22;9027;48.938;9.182;2022-11-15T06:54:32;8.80;99.90
17807;DHT22;9027;48.938;9.182;2022-11-15T06:56:23;8.90;99.90
17807;DHT22;9027;48.938;9.182;2022-11-15T06:58:14;8.90;99.90
17807;DHT22;9027;48.938;9.182;2022-11-15T07:00:05;8.90;99.90
17807;DHT22;9027;48.938;9.182;2022-11-15T07:01:57;9.00;99.90
17807;DHT22;9027;48.938;9.182;2022-11-15T07:03:48;9.00;99.90
17807;DHT22;9027;48.938;9.182;2022-11-15T07:05:38;9.00;99.90
17807;DHT22;9027;48.938;9.182;2022-11-15T07:07:29;9.10;99.90
17807;DHT22;9027;48.938;9.182;2022-11-15T07:09:19;9.20;99.90
17807;DHT22;9027;48.938;9.182;2022-11-15T07:11:10;9.20;99.90
17807;DHT22;9027;48.938;9.182;2022-11-15T07:13:00;9.20;99.90
17807;DHT22;9027;48.938;9.182;2022-11-15T07:14:54;9.20;99.90
17807;DHT22;9027;48.938;9.182;2022-11-15T07:16:44;9.30;99.90
17807;DHT22;9027;48.938;9.182;2022-11-15T07:18:37;9.30;99.90
17807;DHT22;9027;48.938;9.182;2022-11-15T07:20:28;9.40;99.90
17807;DHT22;9027;48.938;9.182;2022-11-15T07:22:19;9.60;99.90
17807;DHT22;9027;48.938;9.182;2022-11-15T07:24:09;9.90;99.90
17807;DHT22;9027;48.938;9.182;2022-11-15T07:26:00;10.40;99.90
17807;DHT22;9027;48.938;9.182;2022-11-15T07:27:54;10.70;99.90
17807;DHT22;9027;48.938;9.182;2022-11-15T07:29:45;11.10;99.90
17807;DHT22;9027;48.938;9.182;2022-11-15T07:31:35;11.70;99.90
17807;DHT22;9027;48.938;9.182;2022-11-15T07:33:27;12.10;99.90
17807;DHT22;9027;48.938;9.182;2022-11-15T07:35:19;12.40;99.90
17807;DHT22;9027;48.938;9.182;2022-11-15T07:37:09;12.70;99.90
17807;DHT22;9027;48.938;9.182;2022-11-15T07:39:00;13.30;99.90
17807;DHT22;9027;48.938;9.182;2022-11-15T07:40:56;13.50;99.90
17807;DHT22;9027;48.938;9.182;2022-11-15T07:42:47;13.50;99.90
17807;DHT22;9027;48.938;9.182;2022-11-15T07:44:42;13.50;99.90
17807;DHT22;9027;48.938;9.182;2022-11-15T07:46:32;13.70;99.90
17807;DHT22;9027;48.938;9.182;2022-11-15T07:48:23;14.30;99.90
17807;DHT22;9027;48.938;9.182;2022-11-15T07:50:14;14.40;99.90
17807;DHT22;9027;48.938;9.182;2022-11-15T07:52:05;14.50;99.90
17807;DHT22;9027;48.938;9.182;2022-11-15T07:53:56;14.90;99.90
17807;DHT22;9027;48.938;9.182;2022-11-15T07:55:46;15.50;99.90
17807;DHT22;9027;48.938;9.182;2022-11-15T07:57:37;16.00;99.90
17807;DHT22;9027;48.938;9.182;2022-11-15T07:59:28;16.10;99.90
17807;DHT22;9027;48.938;9.182;2022-11-15T08:01:19;16.10;99.90
17807;DHT22;9027;48.938;9.182;2022-11-15T08:03:11;16.50;99.90
17807;DHT22;9027;48.938;9.182;2022-11-15T08:05:02;17.20;99.90
17807;DHT22;9027;48.938;9.182;2022-11-15T08:06:53;17.60;99.90
17807;DHT22;9027;48.938;9.182;2022-11-15T08:08:46;17.70;99.90
17807;DHT22;9027;48.938;9.182;2022-11-15T08:10:37;17.30;99.90
17807;DHT22;9027;48.938;9.182;2022-11-15T08:12:28;16.80;99.90
17807;DHT22;9027;48.938;9.182;2022-11-15T08:14:19;16.20;99.90
17807;DHT22;9027;48.938;9.182;2022-11-15T08:16:11;15.40;99.90
17807;DHT22;9027;48.938;9.182;2022-11-15T08:18:03;14.80;99.90
17807;DHT22;9027;48.938;9.182;2022-11-15T08:19:53;14.40;99.90
17807;DHT22;9027;48.938;9.182;2022-11-15T08:21:44;14.10;99.90
17807;DHT22;9027;48.938;9.182;2022-11-15T08:23:35;13.80;99.90
17807;DHT22;9027;48.938;9.182;2022-11-15T08:25:28;13.60;99.90
17807;DHT22;9027;48.938;9.182;2022-11-15T08:27:19;13.50;99.90
17807;DHT22;9027;48.938;9.182;2022-11-15T08:29:10;13.40;99.90
17807;DHT22;9027;48.938;9.182;2022-11-15T08:31:01;13.30;99.90
17807;DHT22;9027;48.938;9.182;2022-11-15T08:32:53;13.30;99.90
17807;DHT22;9027;48.938;9.182;2022-11-15T08:34:43;13.40;99.90
17807;DHT22;9027;48.938;9.182;2022-11-15T08:36:34;13.50;99.90
17807;DHT22;9027;48.938;9.182;2022-11-15T08:38:24;13.50;99.90
17807;DHT22;9027;48.938;9.182;2022-11-15T08:40:15;13.60;99.90
17807;DHT22;9027;48.938;9.182;2022-11-15T08:42:09;13.80;99.90
17807;DHT22;9027;48.938;9.182;2022-11-15T08:44:00;14.00;99.90
17807;DHT22;9027;48.938;9.182;2022-11-15T08:45:50;14.30;99.90
17807;DHT22;9027;48.938;9.182;2022-11-15T08:47:41;14.70;99.90
17807;DHT22;9027;48.938;9.182;2022-11-15T08:49:32;15.20;99.90
17807;DHT22;9027;48.938;9.182;2022-11-15T08:51:22;15.80;99.90
17807;DHT22;9027;48.938;9.182;2022-11-15T08:53:15;16.20;99.90
17807;DHT22;9027;48.938;9.182;2022-11-15T08:55:06;16.70;99.90
17807;DHT22;9027;48.938;9.182;2022-11-15T08:56:57;17.40;99.90
17807;DHT22;9027;48.938;9.182;2022-11-15T08:58:48;17.90;99.90
17807;DHT22;9027;48.938;9.182;2022-11-15T09:00:39;18.70;99.90
17807;DHT22;9027;48.938;9.182;2022-11-15T09:02:29;19.50;99.90
17807;DHT22;9027;48.938;9.182;2022-11-15T09:04:20;19.90;99.90
17807;DHT22;9027;48.938;9.182;2022-11-15T09:06:11;19.90;99.90
17807;DHT22;9027;48.938;9.182;2022-11-15T09:08:02;19.60;99.90
17807;DHT22;9027;48.938;9.182;2022-11-15T09:09:52;19.20;99.90
17807;DHT22;9027;48.938;9.182;2022-11-15T09:11:43;19.00;99.90
17807;DHT22;9027;48.938;9.182;2022-11-15T09:13:34;18.20;99.90
17807;DHT22;9027;48.938;9.182;2022-11-15T09:15:27;17.70;99.90
17807;DHT22;9027;48.938;9.182;2022-11-15T09:17:17;17.40;99.90
17807;DHT22;9027;48.938;9.182;2022-11-15T09:19:08;16.90;99.90
17807;DHT22;9027;48.938;9.182;2022-11-15T09:21:00;16.70;99.90
17807;DHT22;9027;48.938;9.182;2022-11-15T09:22:51;16.30;99.90
17807;DHT22;9027;48.938;9.182;2022-11-15T09:24:42;16.20;99.90
17807;DHT22;9027;48.938;9.182;2022-11-15T09:26:32;16.10;99.90
17807;DHT22;9027;48.938;9.182;2022-11-15T09:28:23;15.80;99.90
17807;DHT22;9027;48.938;9.182;2022-11-15T09:30:13;15.50;99.90
17807;DHT22;9027;48.938;9.182;2022-11-15T09:32:05;15.40;99.90
17807;DHT22;9027;48.938;9.182;2022-11-15T09:33:56;15.40;99.90
17807;DHT22;9027;48.938;9.182;2022-11-15T09:35:46;15.30;99.90
17807;DHT22;9027;48.938;9.182;2022-11-15T09:37:37;15.20;99.90
17807;DHT22;9027;48.938;9.182;2022-11-15T09:39:28;15.10;99.90
17807;DHT22;9027;48.938;9.182;2022-11-15T09:41:30;15.10;99.90
17807;DHT22;9027;48.938;9.182;2022-11-15T09:43:30;15.20;99.90
17807;DHT22;9027;48.938;9.182;2022-11-15T09:45:26;15.50;99.90
17807;DHT22;9027;48.938;9.182;2022-11-15T09:47:47;15.70;99.90
17807;DHT22;9027;48.938;9.182;2022-11-15T09:49:40;16.10;99.90
17807;DHT22;9027;48.938;9.182;2022-11-15T09:51:32;16.40;99.90
17807;DHT22;9027;48.938;9.182;2022-11-15T09:53:04;16.80;99.90
17807;DHT22;9027;48.938;9.182;2022-11-15T09:54:39;17.10;99.90
17807;DHT22;9027;48.938;9.182;2022-11-15T09:56:15;17.40;99.90
17807;DHT22;9027;48.938;9.182;2022-11-15T09:57:54;17.50;99.90
17807;DHT22;9027;48.938;9.182;2022-11-15T09:59:38;17.50;99.90
17807;DHT22;9027;48.938;9.182;2022-11-15T10:01:17;17.50;99.90
17807;DHT22;9027;48.938;9.182;2022-11-15T10:03:03;17.30;99.90
17807;DHT22;9027;48.938;9.182;2022-11-15T10:04:37;17.20;99.90
17807;DHT22;9027;48.938;9.182;2022-11-15T10:06:17;17.00;99.90
17807;DHT22;9027;48.938;9.182;2022-11-15T10:07:58;16.90;99.90
17807;DHT22;9027;48.938;9.182;2022-11-15T10:09:39;16.80;99.90
17807;DHT22;9027;48.938;9.182;2022-11-15T10:11:18;16.70;99.90
17807;DHT22;9027;48.938;9.182;2022-11-15T10:12:51;16.60;99.90
17807;DHT22;9027;48.938;9.182;2022-11-15T10:14:26;16.60;99.90
17807;DHT22;9027;48.938;9.182;2022-11-15T10:16:04;16.50;99.90
17807;DHT22;9027;48.938;9.182;2022-11-15T10:18:06;16.40;99.90
17807;DHT22;9027;48.938;9.182;2022-11-15T10:19:47;16.40;99.90
17807;DHT22;9027;48.938;9.182;2022-11-15T10:21:32;16.30;99.90
17807;DHT22;9027;48.938;9.182;2022-11-15T10:23:10;16.20;99.90
17807;DHT22;9027;48.938;9.182;2022-11-15T10:24:44;16.10;99.90
17807;DHT22;9027;48.938;9.182;2022-11-15T10:26:17;15.90;99.90
17807;DHT22;9027;48.938;9.182;2022-11-15T10:27:57;15.90;99.90
17807;DHT22;9027;48.938;9.182;2022-11-15T10:29:29;15.70;99.90
17807;DHT22;9027;48.938;9.182;2022-11-15T10:31:02;15.70;99.90
17807;DHT22;9027;48.938;9.182;2022-11-15T10:32:36;15.60;99.90
17807;DHT22;9027;48.938;9.182;2022-11-15T10:34:14;15.40;99.90
17807;DHT22;9027;48.938;9.182;2022-11-15T10:35:46;15.40;99.90
17807;DHT22;9027;48.938;9.182;2022-11-15T10:37:28;15.30;99.90
17807;DHT22;9027;48.938;9.182;2022-11-15T10:39:01;15.30;99.90
17807;DHT22;9027;48.938;9.182;2022-11-15T10:40:35;15.30;99.90
17807;DHT22;9027;48.938;9.182;2022-11-15T10:42:18;15.20;99.90
17807;DHT22;9027;48.938;9.182;2022-11-15T10:44:16;15.20;99.90
17807;DHT22;9027;48.938;9.182;2022-11-15T10:45:50;15.20;99.90
17807;DHT22;9027;48.938;9.182;2022-11-15T10:47:26;15.20;99.90
17807;DHT22;9027;48.938;9.182;2022-11-15T10:49:13;15.20;99.90
17807;DHT22;9027;48.938;9.182;2022-11-15T10:50:47;15.20;99.90
17807;DHT22;9027;48.938;9.182;2022-11-15T10:52:20;15.10;99.90
17807;DHT22;9027;48.938;9.182;2022-11-15T10:53:52;15.10;99.90
17807;DHT22;9027;48.938;9.182;2022-11-15T10:55:27;15.10;99.90
17807;DHT22;9027;48.938;9.182;2022-11-15T10:57:07;15.00;99.90
17807;DHT22;9027;48.938;9.182;2022-11-15T10:58:42;14.90;99.90
17807;DHT22;9027;48.938;9.182;2022-11-15T11:00:27;14.90;99.90
17807;DHT22;9027;48.938;9.182;2022-11-15T11:02:00;14.70;99.90
17807;DHT22;9027;48.938;9.182;2022-11-15T11:03:35;14.70;99.90
17807;DHT22;9027;48.938;9.182;2022-11-15T11:05:29;14.70;99.90
17807;DHT22;9027;48.938;9.182;2022-11-15T11:07:02;14.60;99.90
17807;DHT22;9027;48.938;9.182;2022-11-15T11:08:34;14.60;99.90
17807;DHT22;9027;48.938;9.182;2022-11-15T11:10:18;14.60;99.90
17807;DHT22;9027;48.938;9.182;2022-11-15T11:11:51;14.60;99.90
17807;DHT22;9027;48.938;9.182;2022-11-15T11:13:26;14.70;99.90
17807;DHT22;9027;48.938;9.182;2022-11-15T11:14:59;14.60;99.90
17807;DHT22;9027;48.938;9.182;2022-11-15T11:16:48;14.70;99.90
17807;DHT22;9027;48.938;9.182;2022-11-15T11:18:26;14.70;99.90
17807;DHT22;9027;48.938;9.182;2022-11-15T11:20:03;14.70;99.90
17807;DHT22;9027;48.938;9.182;2022-11-15T11:21:46;14.70;99.90
17807;DHT22;9027;48.938;9.182;2022-11-15T11:23:33;14.70;99.90
17807;DHT22;9027;48.938;9.182;2022-11-15T11:25:19;14.70;99.90
17807;DHT22;9027;48.938;9.182;2022-11-15T11:28:56;14.70;99.90
17807;DHT22;9027;48.938;9.182;2022-11-15T11:30:38;14.70;99.90
17807;DHT22;9027;48.938;9.182;2022-11-15T11:32:34;14.70;99.90
17807;DHT22;9027;48.938;9.182;2022-11-15T11:34:15;14.70;99.90
17807;DHT22;9027;48.938;9.182;2022-11-15T11:35:55;14.70;99.90
17807;DHT22;9027;48.938;9.182;2022-11-15T11:37:34;14.70;99.90
17807;DHT22;9027;48.938;9.182;2022-11-15T11:39:23;14.80;99.90
17807;DHT22;9027;48.938;9.182;2022-11-15T11:41:03;14.80;99.90
17807;DHT22;9027;48.938;9.182;2022-11-15T11:42:42;14.70;99.90
17807;DHT22;9027;48.938;9.182;2022-11-15T11:44:27;14.70;99.90
17807;DHT22;9027;48.938;9.182;2022-11-15T11:46:14;14.80;99.90
17807;DHT22;9027;48.938;9.182;2022-11-15T11:47:58;14.80;99.90
17807;DHT22;9027;48.938;9.182;2022-11-15T11:49:39;14.80;99.90
17807;DHT22;9027;48.938;9.182;2022-11-15T11:51:17;14.90;99.90
17807;DHT22;9027;48.938;9.182;2022-11-15T11:52:57;14.80;99.90
17807;DHT22;9027;48.938;9.182;2022-11-15T11:54:37;14.70;99.90
17807;DHT22;9027;48.938;9.182;2022-11-15T11:56:18;14.70;99.90
17807;DHT22;9027;48.938;9.182;2022-11-15T11:58:00;14.70;99.90
17807;DHT22;9027;48.938;9.182;2022-11-15T11:59:39;14.70;99.90
17807;DHT22;9027;48.938;9.182;2022-11-15T12:01:17;14.70;99.90
17807;DHT22;9027;48.938;9.182;2022-11-15T12:03:03;14.60;99.90
17807;DHT22;9027;48.938;9.182;2022-11-15T12:04:38;14.60;99.90
17807;DHT22;9027;48.938;9.182;2022-11-15T12:06:20;14.70;99.90
17807;DHT22;9027;48.938;9.182;2022-11-15T12:08:01;14.70;99.90
17807;DHT22;9027;48.938;9.182;2022-11-15T12:09:38;14.80;99.90
17807;DHT22;9027;48.938;9.182;2022-11-15T12:11:16;14.80;99.90
17807;DHT22;9027;48.938;9.182;2022-11-15T12:12:55;14.90;99.90
17807;DHT22;9027;48.938;9.182;2022-11-15T12:14:32;14.90;99.90
17807;DHT22;9027;48.938;9.182;2022-11-15T12:16:11;14.90;99.90
17807;DHT22;9027;48.938;9.182;2022-11-15T12:17:45;15.00;99.90
17807;DHT22;9027;48.938;9.182;2022-11-15T12:19:17;15.10;99.90
17807;DHT22;9027;48.938;9.182;2022-11-15T12:20:53;15.30;99.90
17807;DHT22;9027;48.938;9.182;2022-11-15T12:22:33;15.30;99.90
17807;DHT22;9027;48.938;9.182;2022-11-15T12:24:13;15.40;99.90
17807;DHT22;9027;48.938;9.182;2022-11-15T12:25:55;15.50;99.90
17807;DHT22;9027;48.938;9.182;2022-11-15T12:27:35;15.50;99.90
17807;DHT22;9027;48.938;9.182;2022-11-15T12:29:15;15.50;99.90
17807;DHT22;9027;48.938;9.182;2022-11-15T12:30:51;15.30;99.90